Goderich, Canada
Current Conditions -  °F | °C
As of 1:00 PM on Monday 24 Nov 2014 (Local Time) from CYXU Reporting Station
Overcast Overcast  
Wind Chill: 54°   Ceiling: 2200
Heat Index: 54°   Visibility: 15mi
Dew Point: 50°   Wind: 23mph
Humidity: 88%   Direction: 210°SSW
Pressure: 29.17"   Gusts: 32mph
Location:  43.74°N, 81.71°W
Report Text: CYXU 241800Z 21020G28KT 15SM OVC022 12/10 A2917 RMK SC8 SLP880 DENSITY ALT 1600FT
Loading
Personal Weather Stations






























Interactive Weather Map New forecast layout! Learn more

10-Day Weather Forecast

Advertisements
Track Severe Weather on mobile